createdAt,value
2019-02-08T00:02:27.258Z,35.10
2019-02-08T00:04:58.689Z,38.23
2019-02-08T00:07:30.154Z,38.17
2019-02-08T00:10:02.072Z,37.43
2019-02-08T00:12:34.317Z,37.20
2019-02-08T00:15:06.588Z,41.13
2019-02-08T00:17:38.282Z,38.37
2019-02-08T00:20:10.203Z,37.53
2019-02-08T00:22:41.541Z,34.90
2019-02-08T00:25:16.017Z,38.47
2019-02-08T00:27:47.707Z,44.87
2019-02-08T00:30:22.556Z,36.33
2019-02-08T00:32:54.506Z,36.57
2019-02-08T00:35:25.840Z,41.20
2019-02-08T00:37:57.262Z,36.37
2019-02-08T00:40:28.885Z,33.70
2019-02-08T00:43:00.961Z,37.33
2019-02-08T00:45:32.408Z,34.97
2019-02-08T00:48:03.790Z,33.33
2019-02-08T00:50:35.084Z,35.23
2019-02-08T00:53:07.121Z,32.57
2019-02-08T00:55:38.646Z,43.70
2019-02-08T00:58:10.183Z,36.60
2019-02-08T01:00:42.739Z,41.90
2019-02-08T01:03:14.405Z,36.17
2019-02-08T01:05:45.833Z,42.27
2019-02-08T01:08:17.117Z,35.67
2019-02-08T01:10:48.503Z,38.43
2019-02-08T01:13:19.851Z,38.13
2019-02-08T01:15:51.022Z,37.07
2019-02-08T01:18:22.332Z,36.10
2019-02-08T01:20:53.503Z,35.10
2019-02-08T01:23:25.145Z,34.63
2019-02-08T01:25:56.476Z,33.83
2019-02-08T01:28:28.010Z,39.13
2019-02-08T01:31:00.673Z,34.67
2019-02-08T01:33:32.035Z,36.47
2019-02-08T01:36:03.414Z,39.63
2019-02-08T01:38:34.860Z,35.87
2019-02-08T01:41:06.591Z,34.70
2019-02-08T01:43:37.943Z,36.70
2019-02-08T01:46:10.191Z,38.13
2019-02-08T01:48:42.633Z,38.73
2019-02-08T01:51:14.097Z,39.73
2019-02-08T01:53:48.721Z,36.77
2019-02-08T01:56:18.683Z,39.30
2019-02-08T01:58:49.845Z,37.53
2019-02-08T02:01:22.241Z,37.83
2019-02-08T02:03:53.820Z,34.27
2019-02-08T02:06:25.107Z,35.77
2019-02-08T02:08:56.316Z,36.23
2019-02-08T02:11:27.510Z,36.57
2019-02-08T02:13:58.811Z,37.93
2019-02-08T02:16:30.242Z,35.50
2019-02-08T02:19:01.872Z,38.63
2019-02-08T02:21:33.328Z,36.43
2019-02-08T02:24:04.609Z,41.20
2019-02-08T02:26:36.059Z,36.27
2019-02-08T02:29:07.645Z,39.17
2019-02-08T02:31:38.965Z,34.70
2019-02-08T02:34:10.773Z,34.33
2019-02-08T02:36:42.966Z,36.93
2019-02-08T02:39:14.845Z,41.30
2019-02-08T02:41:46.001Z,38.60
2019-02-08T02:44:17.423Z,39.80
2019-02-08T02:46:48.747Z,34.93
2019-02-08T02:49:20.930Z,33.60
2019-02-08T02:51:51.769Z,32.43
2019-02-08T02:54:23.242Z,34.67
2019-02-08T02:56:54.604Z,35.63
2019-02-08T02:59:25.832Z,35.67
2019-02-08T03:01:57.003Z,34.97
2019-02-08T03:04:28.200Z,39.23
2019-02-08T03:07:00.250Z,37.90
2019-02-08T03:09:31.361Z,42.33
2019-02-08T03:12:02.554Z,39.83
2019-02-08T03:14:33.970Z,35.60
2019-02-08T03:17:05.357Z,38.70
2019-02-08T03:19:36.426Z,36.13
2019-02-08T03:22:07.790Z,34.53
2019-02-08T03:24:39.496Z,38.40
2019-02-08T03:27:10.686Z,33.00
2019-02-08T03:29:41.852Z,45.30
2019-02-08T03:32:12.969Z,35.27
2019-02-08T03:34:44.054Z,39.00
2019-02-08T03:37:15.143Z,36.47
2019-02-08T03:39:46.302Z,32.90
2019-02-08T03:42:17.382Z,37.00
2019-02-08T03:44:48.203Z,35.77
2019-02-08T03:47:19.419Z,37.30
2019-02-08T03:49:50.687Z,32.13
2019-02-08T03:52:22.057Z,39.03
2019-02-08T03:54:53.283Z,40.27
2019-02-08T03:57:25.488Z,39.03
2019-02-08T03:59:56.605Z,35.53
2019-02-08T04:02:27.886Z,33.63
2019-02-08T04:04:59.320Z,42.77
2019-02-08T04:07:30.522Z,35.17
2019-02-08T04:10:02.206Z,35.13
2019-02-08T04:12:33.482Z,35.07
2019-02-08T04:15:05.696Z,35.83
2019-02-08T04:17:36.998Z,37.77
2019-02-08T04:20:09.248Z,33.77
2019-02-08T04:22:40.486Z,39.70
2019-02-08T04:25:12.375Z,37.03
2019-02-08T04:27:44.816Z,37.57
2019-02-08T04:30:25.794Z,32.77
2019-02-08T04:32:57.209Z,34.10
2019-02-08T04:35:28.662Z,31.67
2019-02-08T04:38:00.288Z,38.90
2019-02-08T04:40:31.584Z,33.30
2019-02-08T04:43:03.343Z,34.13
2019-02-08T04:45:36.354Z,35.57
2019-02-08T04:48:07.221Z,54.30
2019-02-08T04:50:38.506Z,68.70
2019-02-08T04:53:09.583Z,43.00
2019-02-08T04:55:40.748Z,36.57
2019-02-08T04:58:12.263Z,43.50
2019-02-08T05:00:43.782Z,54.77
2019-02-08T05:03:15.793Z,62.90
2019-02-08T05:05:46.889Z,72.13
2019-02-08T05:08:17.573Z,138.30
2019-02-08T05:10:48.365Z,185.47
2019-02-08T05:13:19.073Z,217.27
2019-02-08T05:15:49.837Z,240.77
2019-02-08T05:18:20.597Z,209.43
2019-02-08T05:20:51.292Z,202.37
2019-02-08T05:23:22.055Z,200.17
2019-02-08T05:25:53.833Z,198.40
2019-02-08T05:28:24.680Z,238.33
2019-02-08T05:30:55.386Z,170.30
2019-02-08T05:33:26.661Z,148.13
2019-02-08T05:35:57.484Z,204.93
2019-02-08T05:38:28.146Z,265.93
2019-02-08T05:40:58.875Z,308.30
2019-02-08T05:43:31.385Z,246.80
2019-02-08T05:46:03.128Z,356.00
2019-02-08T05:48:33.745Z,316.53
2019-02-08T05:51:04.417Z,178.03
2019-02-08T05:53:35.050Z,325.33
2019-02-08T05:56:05.939Z,251.13
2019-02-08T05:58:36.603Z,298.17
2019-02-08T06:01:07.307Z,194.10
2019-02-08T06:03:38.505Z,212.57
2019-02-08T06:06:09.350Z,199.97
2019-02-08T06:08:40.464Z,156.47
2019-02-08T06:11:11.113Z,145.80
2019-02-08T06:13:41.878Z,143.47
2019-02-08T06:16:12.535Z,204.03
2019-02-08T06:18:44.277Z,175.97
2019-02-08T06:21:14.938Z,180.50
2019-02-08T06:23:45.943Z,176.30
2019-02-08T06:26:16.603Z,157.43
2019-02-08T06:28:47.279Z,105.30
2019-02-08T06:31:18.572Z,174.80
2019-02-08T06:33:49.247Z,150.30
2019-02-08T06:36:19.891Z,94.10
2019-02-08T06:38:50.541Z,101.00
2019-02-08T06:41:21.454Z,53.20
2019-02-08T06:43:52.102Z,59.23
2019-02-08T06:46:22.938Z,47.53
2019-02-08T06:48:54.361Z,36.03
2019-02-08T06:51:25.810Z,33.57
2019-02-08T06:53:56.537Z,30.10
2019-02-08T06:56:45.302Z,35.10
2019-02-08T06:59:26.722Z,30.20
2019-02-08T07:02:19.329Z,33.57
2019-02-08T07:05:08.898Z,31.37
2019-02-08T07:07:50.360Z,33.23
2019-02-08T07:10:45.995Z,28.90
2019-02-08T07:13:28.038Z,32.27
2019-02-08T07:16:21.311Z,121.90
2019-02-08T07:19:00.123Z,80.37
2019-02-08T07:21:49.720Z,80.80
2019-02-08T07:24:39.788Z,94.17
2019-02-08T07:27:21.992Z,118.00
2019-02-08T07:30:02.786Z,82.40
2019-02-08T07:32:44.096Z,62.80
2019-02-08T07:35:43.938Z,80.27
2019-02-08T07:38:36.046Z,63.00
2019-02-08T07:41:27.582Z,72.80
2019-02-08T07:44:17.614Z,88.40
2019-02-08T07:47:14.580Z,124.20
2019-02-08T07:50:14.575Z,67.83
2019-02-08T07:52:59.329Z,57.67
2019-02-08T07:55:43.493Z,54.73
2019-02-08T07:58:33.368Z,45.93
2019-02-08T08:01:36.260Z,30.40
2019-02-08T08:04:29.156Z,24.30
2019-02-08T08:07:25.619Z,21.87
2019-02-08T08:10:10.966Z,21.40
2019-02-08T08:13:09.394Z,18.43
2019-02-08T08:16:04.100Z,24.10
2019-02-08T08:18:54.422Z,21.63
2019-02-08T08:21:48.332Z,19.27
2019-02-08T08:24:44.716Z,16.10
2019-02-08T08:27:24.763Z,15.73
2019-02-08T08:30:14.744Z,19.90
2019-02-08T08:33:19.388Z,18.70
2019-02-08T08:36:21.508Z,18.07
2019-02-08T08:39:59.180Z,15.37
2019-02-08T08:43:32.444Z,15.87
2019-02-08T08:46:38.093Z,16.60
2019-02-08T08:50:13.042Z,15.83
2019-02-08T08:53:54.560Z,17.43
2019-02-08T08:57:28.024Z,15.53
2019-02-08T09:00:51.800Z,14.93
2019-02-08T09:04:19.509Z,12.17
2019-02-08T09:07:28.261Z,16.67
2019-02-08T09:10:57.910Z,16.03
2019-02-08T09:14:29.275Z,20.60
2019-02-08T09:18:04.082Z,11.60
2019-02-08T09:21:35.904Z,18.57
2019-02-08T09:24:57.770Z,16.13
2019-02-08T09:28:34.041Z,16.67
2019-02-08T09:32:19.595Z,13.80
2019-02-08T09:35:31.824Z,13.07
2019-02-08T09:39:11.317Z,13.83
2019-02-08T09:42:26.778Z,13.90
2019-02-08T09:46:05.129Z,13.30
2019-02-08T09:49:53.067Z,15.13
2019-02-08T09:53:15.786Z,11.33
2019-02-08T09:56:57.843Z,15.17
2019-02-08T10:00:40.369Z,9.70
2019-02-08T10:04:05.542Z,11.80
2019-02-08T10:07:30.089Z,10.97
2019-02-08T10:10:59.689Z,9.53
2019-02-08T10:14:35.961Z,14.37
2019-02-08T10:18:16.051Z,12.30
2019-02-08T10:21:51.200Z,11.97
2019-02-08T10:25:15.954Z,12.30
2019-02-08T10:29:17.253Z,12.97
2019-02-08T10:32:59.360Z,8.53
2019-02-08T10:36:59.562Z,12.30
2019-02-08T10:40:32.509Z,9.00
2019-02-08T10:44:11.075Z,10.97
2019-02-08T10:48:00.283Z,10.93
2019-02-08T10:51:32.654Z,11.37
2019-02-08T10:54:52.689Z,14.40
2019-02-08T10:58:28.143Z,7.53
2019-02-08T11:02:13.986Z,11.70
2019-02-08T11:05:44.139Z,6.80
2019-02-08T11:09:19.788Z,10.20
2019-02-08T11:13:05.743Z,10.93
2019-02-08T11:16:41.772Z,11.57
2019-02-08T11:19:19.841Z,7.80
2019-02-08T11:21:52.388Z,10.67
2019-02-08T11:24:28.119Z,7.63
2019-02-08T11:27:02.220Z,11.27
2019-02-08T11:29:32.867Z,13.53
2019-02-08T11:32:03.610Z,13.30
2019-02-08T11:34:34.253Z,7.90
2019-02-08T11:37:06.242Z,10.33
2019-02-08T11:39:37.220Z,8.63
2019-02-08T11:42:07.895Z,10.20
2019-02-08T11:44:39.363Z,10.37
2019-02-08T11:47:10.077Z,9.77
2019-02-08T11:49:45.396Z,9.60
2019-02-08T11:52:16.189Z,11.30
2019-02-08T11:54:46.991Z,9.63
2019-02-08T11:57:18.001Z,10.47
2019-02-08T11:59:48.697Z,10.00
2019-02-08T12:02:19.393Z,10.50
2019-02-08T12:04:50.045Z,8.60
2019-02-08T12:07:20.726Z,8.33
2019-02-08T12:09:51.420Z,9.53
2019-02-08T12:12:22.167Z,9.23
2019-02-08T12:14:52.851Z,8.03
2019-02-08T12:17:23.536Z,11.40
2019-02-08T12:19:54.352Z,7.87
2019-02-08T12:22:25.006Z,10.77
2019-02-08T12:24:56.670Z,7.77
2019-02-08T12:27:27.471Z,8.83
2019-02-08T12:29:58.272Z,9.53
2019-02-08T12:32:28.896Z,11.57
2019-02-08T12:34:59.542Z,7.53
2019-02-08T12:37:30.226Z,10.00
2019-02-08T12:40:01.439Z,7.13
2019-02-08T12:42:32.129Z,10.80
2019-02-08T12:45:02.808Z,8.90
2019-02-08T12:47:33.518Z,12.93
2019-02-08T12:50:04.490Z,10.67
2019-02-08T12:52:35.149Z,9.07
2019-02-08T12:55:07.571Z,11.90
2019-02-08T12:57:39.077Z,10.00
2019-02-08T13:00:14.745Z,10.27
2019-02-08T13:02:45.767Z,7.33
2019-02-08T13:05:16.956Z,9.60
2019-02-08T13:07:47.990Z,9.50
2019-02-08T13:10:22.111Z,9.27
2019-02-08T13:12:53.067Z,11.27
2019-02-08T13:15:24.162Z,12.30
2019-02-08T13:17:54.816Z,7.90
2019-02-08T13:20:27.054Z,12.63
2019-02-08T13:22:57.837Z,10.60
2019-02-08T13:25:28.638Z,10.70
2019-02-08T13:28:02.153Z,7.03
2019-02-08T13:30:33.323Z,8.30
2019-02-08T13:33:03.986Z,13.30
2019-02-08T13:35:34.809Z,10.73
2019-02-08T13:38:05.481Z,6.57
2019-02-08T13:40:36.145Z,10.37
2019-02-08T13:43:06.977Z,7.33
2019-02-08T13:45:37.908Z,8.93
2019-02-08T13:48:08.676Z,11.40
2019-02-08T13:50:39.419Z,8.33
2019-02-08T13:53:10.062Z,10.50
2019-02-08T13:55:40.834Z,9.67
2019-02-08T13:58:11.481Z,10.67
2019-02-08T14:00:43.753Z,7.93
2019-02-08T14:03:14.521Z,8.50
2019-02-08T14:05:45.351Z,7.07
2019-02-08T14:08:16.097Z,8.93
2019-02-08T14:10:47.193Z,8.50
2019-02-08T14:13:17.891Z,7.23
2019-02-08T14:15:49.250Z,11.57
2019-02-08T14:18:19.842Z,8.20
2019-02-08T14:20:51.198Z,10.67
2019-02-08T14:23:21.821Z,11.10
2019-02-08T14:25:52.571Z,9.83
2019-02-08T14:28:23.288Z,8.83
2019-02-08T14:30:54.036Z,12.10
2019-02-08T14:33:24.771Z,8.17
2019-02-08T14:35:55.999Z,6.57
2019-02-08T14:38:26.957Z,8.20
2019-02-08T14:40:57.632Z,11.03
2019-02-08T14:43:36.303Z,9.60
2019-02-08T14:46:11.691Z,5.87
2019-02-08T14:48:45.028Z,10.87
2019-02-08T14:51:18.315Z,12.17
2019-02-08T14:53:50.510Z,5.57
2019-02-08T14:56:22.884Z,6.50
2019-02-08T14:58:54.612Z,11.67
2019-02-08T15:01:34.957Z,8.10
2019-02-08T15:04:07.726Z,11.77
2019-02-08T15:06:39.375Z,9.57
2019-02-08T15:09:12.569Z,11.93
2019-02-08T15:11:43.219Z,9.33
2019-02-08T15:14:13.949Z,9.17
2019-02-08T15:16:44.981Z,7.60
2019-02-08T15:19:15.706Z,9.87
2019-02-08T15:21:46.336Z,6.73
2019-02-08T15:24:17.001Z,8.30
2019-02-08T15:26:47.711Z,6.20
2019-02-08T15:29:18.446Z,5.80
2019-02-08T15:31:49.244Z,9.67
2019-02-08T15:34:20.015Z,9.50
2019-02-08T15:36:52.533Z,5.20
2019-02-08T15:39:23.275Z,9.30
2019-02-08T15:41:54.640Z,10.30
2019-02-08T15:44:25.431Z,12.77
2019-02-08T15:46:56.292Z,6.90
2019-02-08T15:49:26.983Z,7.00
2019-02-08T15:51:57.632Z,10.97
2019-02-08T15:54:28.301Z,15.33
2019-02-08T15:56:58.946Z,11.80
2019-02-08T15:59:29.618Z,7.17
2019-02-08T16:02:00.282Z,8.90
2019-02-08T16:04:30.928Z,10.37
2019-02-08T16:07:02.239Z,6.57
2019-02-08T16:09:32.926Z,9.00
2019-02-08T16:12:03.572Z,10.07
2019-02-08T16:14:36.249Z,7.97
2019-02-08T16:17:07.828Z,6.13
2019-02-08T16:19:38.506Z,7.17
2019-02-08T16:22:09.352Z,13.27
2019-02-08T16:24:41.453Z,8.03
2019-02-08T16:27:12.179Z,10.37
2019-02-08T16:29:48.110Z,6.67
2019-02-08T16:32:18.800Z,9.93
2019-02-08T16:34:49.476Z,8.30
2019-02-08T16:37:20.593Z,8.87
2019-02-08T16:39:51.982Z,9.87
2019-02-08T16:42:23.929Z,18.73
2019-02-08T16:44:55.329Z,11.33
2019-02-08T16:47:26.077Z,6.37
2019-02-08T16:49:56.790Z,9.80
2019-02-08T16:52:29.193Z,10.27
2019-02-08T16:55:03.210Z,8.97
2019-02-08T16:57:33.920Z,7.83
2019-02-08T17:00:08.345Z,7.93
2019-02-08T17:02:39.145Z,9.00
2019-02-08T17:05:13.175Z,6.47
2019-02-08T17:07:43.838Z,7.60
2019-02-08T17:10:17.268Z,7.23
2019-02-08T17:12:48.821Z,35.43
2019-02-08T17:15:22.903Z,106.20
2019-02-08T17:17:54.029Z,252.17
2019-02-08T17:20:38.045Z,114.83
2019-02-08T17:23:09.050Z,180.63
2019-02-08T17:25:39.706Z,185.23
2019-02-08T17:28:12.014Z,295.23
2019-02-08T17:30:43.410Z,228.50
2019-02-08T17:33:14.127Z,411.10
2019-02-08T17:35:45.242Z,124.57
2019-02-08T17:38:15.971Z,242.07
2019-02-08T17:40:48.218Z,133.70
2019-02-08T17:43:19.265Z,47.53
2019-02-08T17:45:49.925Z,127.57
2019-02-08T17:48:20.550Z,103.57
2019-02-08T17:50:51.228Z,39.17
2019-02-08T17:53:21.854Z,76.70
2019-02-08T17:55:52.680Z,93.30
2019-02-08T17:58:23.515Z,21.73
2019-02-08T18:00:56.467Z,32.60
2019-02-08T18:03:27.546Z,29.00
2019-02-08T18:06:00.129Z,19.53
2019-02-08T18:08:30.995Z,82.03
2019-02-08T18:11:01.748Z,108.60
2019-02-08T18:13:32.448Z,118.57
2019-02-08T18:16:04.164Z,142.87
2019-02-08T18:18:34.933Z,100.57
2019-02-08T18:21:09.887Z,163.50
2019-02-08T18:23:40.904Z,140.63
2019-02-08T18:26:11.733Z,108.87
2019-02-08T18:28:42.455Z,119.07
2019-02-08T18:31:13.099Z,67.27
2019-02-08T18:33:46.959Z,41.07
2019-02-08T18:36:17.576Z,35.40
2019-02-08T18:38:48.271Z,30.10
2019-02-08T18:41:20.773Z,41.63
2019-02-08T18:43:51.466Z,29.63
2019-02-08T18:46:22.161Z,27.47
2019-02-08T18:48:52.882Z,24.27
2019-02-08T18:51:23.704Z,30.10
2019-02-08T18:53:54.420Z,21.27
2019-02-08T18:56:25.153Z,23.80
2019-02-08T18:58:55.799Z,20.87
2019-02-08T19:01:26.735Z,40.00
2019-02-08T19:03:57.396Z,28.67
2019-02-08T19:06:28.034Z,19.00
2019-02-08T19:08:58.667Z,26.17
2019-02-08T19:11:30.004Z,37.90
2019-02-08T19:14:00.731Z,30.43
2019-02-08T19:16:31.511Z,25.43
2019-02-08T19:19:02.516Z,27.27
2019-02-08T19:21:33.277Z,41.77
2019-02-08T19:24:04.040Z,44.67
2019-02-08T19:26:34.738Z,24.90
2019-02-08T19:29:05.442Z,18.20
2019-02-08T19:31:36.056Z,25.03
2019-02-08T19:34:08.721Z,29.17
2019-02-08T19:36:40.327Z,26.93
2019-02-08T19:39:12.050Z,19.67
2019-02-08T19:41:42.740Z,20.00
2019-02-08T19:44:13.476Z,18.27
2019-02-08T19:46:44.110Z,18.77
2019-02-08T19:49:14.940Z,22.47
2019-02-08T19:51:45.663Z,17.23
2019-02-08T19:54:16.483Z,18.37
2019-02-08T19:56:47.177Z,19.67
2019-02-08T19:59:18.032Z,14.97
2019-02-08T20:01:48.884Z,17.87
2019-02-08T20:04:19.709Z,16.57
2019-02-08T20:06:50.405Z,14.97
2019-02-08T20:09:21.242Z,19.43
2019-02-08T20:11:52.041Z,23.40
2019-02-08T20:14:23.488Z,17.43
2019-02-08T20:16:54.181Z,18.37
2019-02-08T20:19:25.087Z,17.23
2019-02-08T20:21:56.349Z,19.33
2019-02-08T20:24:27.038Z,16.17
2019-02-08T20:26:57.721Z,18.67
2019-02-08T20:29:29.047Z,20.07
2019-02-08T20:32:00.073Z,17.50
2019-02-08T20:34:32.784Z,19.43
2019-02-08T20:37:04.206Z,18.67
2019-02-08T20:39:38.930Z,19.03
2019-02-08T20:42:09.700Z,24.77
2019-02-08T20:44:40.419Z,17.87
2019-02-08T20:47:11.454Z,23.40
2019-02-08T20:49:42.414Z,15.30
2019-02-08T20:52:13.411Z,17.53
2019-02-08T20:54:46.707Z,18.40
2019-02-08T20:57:18.870Z,18.50
2019-02-08T20:59:49.749Z,17.90
2019-02-08T21:02:22.592Z,19.67
2019-02-08T21:04:53.924Z,19.73
2019-02-08T21:07:25.650Z,18.50
2019-02-08T21:09:56.404Z,12.90
2019-02-08T21:12:32.811Z,18.73
2019-02-08T21:15:07.276Z,13.00
2019-02-08T21:17:38.332Z,18.10
2019-02-08T21:20:12.160Z,15.40
2019-02-08T21:22:43.182Z,15.13
2019-02-08T21:25:18.612Z,16.93
2019-02-08T21:27:49.310Z,14.97
2019-02-08T21:30:23.905Z,15.73
2019-02-08T21:32:54.935Z,16.30
2019-02-08T21:35:25.723Z,17.37
2019-02-08T21:37:59.157Z,20.90
2019-02-08T21:40:30.057Z,20.93
2019-02-08T21:43:01.552Z,19.67
2019-02-08T21:45:34.896Z,18.37
2019-02-08T21:48:07.007Z,14.93
2019-02-08T21:50:37.901Z,14.30
2019-02-08T21:53:08.880Z,17.93
2019-02-08T21:55:39.786Z,15.17
2019-02-08T21:58:10.543Z,17.07
2019-02-08T22:00:44.175Z,18.40
2019-02-08T22:03:15.986Z,18.10
2019-02-08T22:05:57.627Z,12.73
2019-02-08T22:08:28.681Z,13.60
2019-02-08T22:10:59.568Z,14.03
2019-02-08T22:13:31.645Z,15.27
2019-02-08T22:16:03.448Z,15.67
2019-02-08T22:18:34.380Z,15.10
2019-02-08T22:21:05.214Z,12.03
2019-02-08T22:23:35.860Z,13.03
2019-02-08T22:26:09.901Z,12.63
2019-02-08T22:28:41.409Z,13.37
2019-02-08T22:31:12.071Z,13.73
2019-02-08T22:33:44.853Z,18.87
2019-02-08T22:36:15.702Z,12.63
2019-02-08T22:38:46.454Z,11.47
2019-02-08T22:41:17.607Z,8.73
2019-02-08T22:43:48.394Z,11.43
2019-02-08T22:46:19.338Z,13.13
2019-02-08T22:48:50.049Z,13.73
2019-02-08T22:51:22.072Z,10.33
2019-02-08T22:53:52.784Z,15.57
2019-02-08T22:56:23.996Z,13.77
2019-02-08T22:58:55.383Z,11.37
2019-02-08T23:01:35.393Z,14.37
2019-02-08T23:04:08.578Z,13.90
2019-02-08T23:06:45.508Z,11.70
2019-02-08T23:09:26.161Z,13.87
2019-02-08T23:12:03.844Z,13.03
2019-02-08T23:14:34.870Z,15.87
2019-02-08T23:17:06.257Z,9.80
2019-02-08T23:19:37.097Z,13.97
2019-02-08T23:22:09.972Z,10.90
2019-02-08T23:24:43.055Z,10.93
2019-02-08T23:27:14.332Z,13.33
2019-02-08T23:29:45.703Z,12.60
2019-02-08T23:32:16.764Z,12.40
2019-02-08T23:34:47.601Z,12.50
2019-02-08T23:37:25.710Z,11.20
2019-02-08T23:39:51.779Z,9.17
2019-02-08T23:42:23.754Z,16.23
2019-02-08T23:44:55.029Z,11.10
2019-02-08T23:47:26.263Z,11.43
2019-02-08T23:49:57.468Z,11.23
2019-02-08T23:52:28.601Z,12.93
2019-02-08T23:54:59.686Z,10.73
2019-02-08T23:57:30.923Z,7.93
